sensor_id;sensor_type;location;lat;lon;timestamp;P1;durP1;ratioP1;P2;durP2;ratioP2
83410;SDS011;73340;53.132;8.174;2024-03-22T00:01:39;28.25;;;14.80;;
83410;SDS011;73340;53.132;8.174;2024-03-22T00:04:04;32.03;;;14.40;;
83410;SDS011;73340;53.132;8.174;2024-03-22T00:06:30;32.30;;;14.60;;
83410;SDS011;73340;53.132;8.174;2024-03-22T00:08:55;31.02;;;14.27;;
83410;SDS011;73340;53.132;8.174;2024-03-22T00:11:21;30.38;;;14.57;;
83410;SDS011;73340;53.132;8.174;2024-03-22T00:13:46;31.80;;;15.30;;
83410;SDS011;73340;53.132;8.174;2024-03-22T00:16:11;30.98;;;15.40;;
83410;SDS011;73340;53.132;8.174;2024-03-22T00:18:37;29.90;;;14.25;;
83410;SDS011;73340;53.132;8.174;2024-03-22T00:21:02;30.30;;;15.02;;
83410;SDS011;73340;53.132;8.174;2024-03-22T00:23:28;34.13;;;16.67;;
83410;SDS011;73340;53.132;8.174;2024-03-22T00:25:55;32.83;;;15.13;;
83410;SDS011;73340;53.132;8.174;2024-03-22T00:28:20;32.13;;;15.27;;
83410;SDS011;73340;53.132;8.174;2024-03-22T00:30:45;35.07;;;15.93;;
83410;SDS011;73340;53.132;8.174;2024-03-22T00:33:11;31.30;;;15.40;;
83410;SDS011;73340;53.132;8.174;2024-03-22T00:35:36;32.83;;;15.57;;
83410;SDS011;73340;53.132;8.174;2024-03-22T00:38:01;33.10;;;15.60;;
83410;SDS011;73340;53.132;8.174;2024-03-22T00:40:27;33.40;;;15.70;;
83410;SDS011;73340;53.132;8.174;2024-03-22T00:42:52;35.67;;;16.27;;
83410;SDS011;73340;53.132;8.174;2024-03-22T00:45:17;31.95;;;15.55;;
83410;SDS011;73340;53.132;8.174;2024-03-22T00:47:43;32.67;;;16.52;;
83410;SDS011;73340;53.132;8.174;2024-03-22T00:50:08;35.67;;;17.43;;
83410;SDS011;73340;53.132;8.174;2024-03-22T00:52:33;36.72;;;17.05;;
83410;SDS011;73340;53.132;8.174;2024-03-22T00:54:59;38.47;;;17.58;;
83410;SDS011;73340;53.132;8.174;2024-03-22T00:57:24;35.63;;;17.57;;
83410;SDS011;73340;53.132;8.174;2024-03-22T00:59:50;34.92;;;17.27;;
83410;SDS011;73340;53.132;8.174;2024-03-22T01:02:15;38.67;;;16.87;;
83410;SDS011;73340;53.132;8.174;2024-03-22T01:04:40;37.20;;;17.52;;
83410;SDS011;73340;53.132;8.174;2024-03-22T01:07:06;34.90;;;17.98;;
83410;SDS011;73340;53.132;8.174;2024-03-22T01:09:31;33.33;;;16.65;;
83410;SDS011;73340;53.132;8.174;2024-03-22T01:11:56;35.40;;;17.80;;
83410;SDS011;73340;53.132;8.174;2024-03-22T01:14:22;37.80;;;16.87;;
83410;SDS011;73340;53.132;8.174;2024-03-22T01:16:47;37.70;;;17.25;;
83410;SDS011;73340;53.132;8.174;2024-03-22T01:19:12;37.80;;;17.47;;
83410;SDS011;73340;53.132;8.174;2024-03-22T01:21:38;41.30;;;18.50;;
83410;SDS011;73340;53.132;8.174;2024-03-22T01:24:03;37.70;;;18.97;;
83410;SDS011;73340;53.132;8.174;2024-03-22T01:26:28;43.38;;;20.27;;
83410;SDS011;73340;53.132;8.174;2024-03-22T01:28:54;42.00;;;18.50;;
83410;SDS011;73340;53.132;8.174;2024-03-22T01:31:19;43.10;;;20.10;;
83410;SDS011;73340;53.132;8.174;2024-03-22T01:33:44;40.75;;;19.60;;
83410;SDS011;73340;53.132;8.174;2024-03-22T01:36:09;38.07;;;17.63;;
83410;SDS011;73340;53.132;8.174;2024-03-22T01:38:35;45.63;;;20.90;;
83410;SDS011;73340;53.132;8.174;2024-03-22T01:41:00;44.60;;;19.77;;
83410;SDS011;73340;53.132;8.174;2024-03-22T01:43:25;46.57;;;20.13;;
83410;SDS011;73340;53.132;8.174;2024-03-22T01:45:51;44.55;;;20.20;;
83410;SDS011;73340;53.132;8.174;2024-03-22T01:48:16;42.60;;;20.05;;
83410;SDS011;73340;53.132;8.174;2024-03-22T01:50:41;43.15;;;19.73;;
83410;SDS011;73340;53.132;8.174;2024-03-22T01:53:08;47.78;;;22.75;;
83410;SDS011;73340;53.132;8.174;2024-03-22T01:55:34;48.50;;;22.17;;
83410;SDS011;73340;53.132;8.174;2024-03-22T01:57:59;50.70;;;22.33;;
83410;SDS011;73340;53.132;8.174;2024-03-22T02:00:25;46.60;;;21.23;;
83410;SDS011;73340;53.132;8.174;2024-03-22T02:02:50;50.93;;;22.73;;
83410;SDS011;73340;53.132;8.174;2024-03-22T02:05:16;53.27;;;21.83;;
83410;SDS011;73340;53.132;8.174;2024-03-22T02:07:44;49.33;;;22.83;;
83410;SDS011;73340;53.132;8.174;2024-03-22T02:10:13;48.45;;;22.30;;
83410;SDS011;73340;53.132;8.174;2024-03-22T02:12:39;56.42;;;23.23;;
83410;SDS011;73340;53.132;8.174;2024-03-22T02:15:05;53.40;;;22.83;;
83410;SDS011;73340;53.132;8.174;2024-03-22T02:17:32;55.28;;;25.25;;
83410;SDS011;73340;53.132;8.174;2024-03-22T02:19:58;55.10;;;24.10;;
83410;SDS011;73340;53.132;8.174;2024-03-22T02:22:24;49.60;;;21.75;;
83410;SDS011;73340;53.132;8.174;2024-03-22T02:24:49;49.10;;;22.60;;
83410;SDS011;73340;53.132;8.174;2024-03-22T02:27:14;48.67;;;21.80;;
83410;SDS011;73340;53.132;8.174;2024-03-22T02:29:39;52.53;;;22.67;;
83410;SDS011;73340;53.132;8.174;2024-03-22T02:32:05;55.67;;;23.70;;
83410;SDS011;73340;53.132;8.174;2024-03-22T02:34:31;52.55;;;23.88;;
83410;SDS011;73340;53.132;8.174;2024-03-22T02:36:56;53.95;;;24.20;;
83410;SDS011;73340;53.132;8.174;2024-03-22T02:39:21;52.83;;;24.48;;
83410;SDS011;73340;53.132;8.174;2024-03-22T02:41:47;48.90;;;22.58;;
83410;SDS011;73340;53.132;8.174;2024-03-22T02:44:12;52.23;;;24.80;;
83410;SDS011;73340;53.132;8.174;2024-03-22T02:46:37;52.67;;;23.10;;
83410;SDS011;73340;53.132;8.174;2024-03-22T02:49:03;52.17;;;22.50;;
83410;SDS011;73340;53.132;8.174;2024-03-22T02:51:28;59.00;;;25.43;;
83410;SDS011;73340;53.132;8.174;2024-03-22T02:53:53;51.27;;;24.03;;
83410;SDS011;73340;53.132;8.174;2024-03-22T02:56:18;55.73;;;23.33;;
83410;SDS011;73340;53.132;8.174;2024-03-22T02:58:44;58.97;;;24.47;;
83410;SDS011;73340;53.132;8.174;2024-03-22T03:01:09;54.38;;;23.60;;
83410;SDS011;73340;53.132;8.174;2024-03-22T03:03:34;58.60;;;25.50;;
83410;SDS011;73340;53.132;8.174;2024-03-22T03:05:59;60.93;;;25.40;;
83410;SDS011;73340;53.132;8.174;2024-03-22T03:08:25;54.37;;;23.50;;
83410;SDS011;73340;53.132;8.174;2024-03-22T03:10:50;53.17;;;22.92;;
83410;SDS011;73340;53.132;8.174;2024-03-22T03:13:15;61.92;;;25.75;;
83410;SDS011;73340;53.132;8.174;2024-03-22T03:15:41;54.65;;;23.50;;
83410;SDS011;73340;53.132;8.174;2024-03-22T03:18:06;58.50;;;25.60;;
83410;SDS011;73340;53.132;8.174;2024-03-22T03:20:31;73.93;;;24.65;;
83410;SDS011;73340;53.132;8.174;2024-03-22T03:22:57;55.30;;;23.80;;
83410;SDS011;73340;53.132;8.174;2024-03-22T03:25:24;56.95;;;23.90;;
83410;SDS011;73340;53.132;8.174;2024-03-22T03:27:50;59.78;;;26.60;;
83410;SDS011;73340;53.132;8.174;2024-03-22T03:30:15;55.47;;;25.03;;
83410;SDS011;73340;53.132;8.174;2024-03-22T03:32:40;55.50;;;24.17;;
83410;SDS011;73340;53.132;8.174;2024-03-22T03:35:06;57.47;;;25.13;;
83410;SDS011;73340;53.132;8.174;2024-03-22T03:37:31;59.88;;;24.48;;
83410;SDS011;73340;53.132;8.174;2024-03-22T03:39:56;54.55;;;24.48;;
83410;SDS011;73340;53.132;8.174;2024-03-22T03:42:22;52.63;;;25.43;;
83410;SDS011;73340;53.132;8.174;2024-03-22T03:44:47;61.55;;;23.65;;
83410;SDS011;73340;53.132;8.174;2024-03-22T03:47:12;59.30;;;25.17;;
83410;SDS011;73340;53.132;8.174;2024-03-22T03:49:38;64.13;;;26.43;;
83410;SDS011;73340;53.132;8.174;2024-03-22T03:52:03;54.87;;;23.93;;
83410;SDS011;73340;53.132;8.174;2024-03-22T03:54:29;57.13;;;24.02;;
83410;SDS011;73340;53.132;8.174;2024-03-22T03:56:54;53.97;;;24.83;;
83410;SDS011;73340;53.132;8.174;2024-03-22T03:59:19;64.15;;;24.42;;
83410;SDS011;73340;53.132;8.174;2024-03-22T04:01:44;54.83;;;24.40;;
83410;SDS011;73340;53.132;8.174;2024-03-22T04:04:10;63.92;;;26.58;;
83410;SDS011;73340;53.132;8.174;2024-03-22T04:06:35;67.60;;;25.73;;
83410;SDS011;73340;53.132;8.174;2024-03-22T04:09:00;61.85;;;26.33;;
83410;SDS011;73340;53.132;8.174;2024-03-22T04:11:27;59.38;;;26.83;;
83410;SDS011;73340;53.132;8.174;2024-03-22T04:13:53;68.03;;;25.50;;
83410;SDS011;73340;53.132;8.174;2024-03-22T04:16:18;66.20;;;27.25;;
83410;SDS011;73340;53.132;8.174;2024-03-22T04:18:43;60.42;;;26.15;;
83410;SDS011;73340;53.132;8.174;2024-03-22T04:21:09;61.83;;;24.58;;
83410;SDS011;73340;53.132;8.174;2024-03-22T04:23:34;61.10;;;25.73;;
83410;SDS011;73340;53.132;8.174;2024-03-22T04:26:00;63.73;;;25.37;;
83410;SDS011;73340;53.132;8.174;2024-03-22T04:28:26;63.65;;;25.10;;
83410;SDS011;73340;53.132;8.174;2024-03-22T04:31:05;62.67;;;26.83;;
83410;SDS011;73340;53.132;8.174;2024-03-22T04:33:32;54.55;;;24.20;;
83410;SDS011;73340;53.132;8.174;2024-03-22T04:35:58;57.65;;;24.70;;
83410;SDS011;73340;53.132;8.174;2024-03-22T04:38:24;53.00;;;24.35;;
83410;SDS011;73340;53.132;8.174;2024-03-22T04:40:50;62.35;;;27.23;;
83410;SDS011;73340;53.132;8.174;2024-03-22T04:43:16;62.08;;;26.33;;
83410;SDS011;73340;53.132;8.174;2024-03-22T04:45:45;64.15;;;26.58;;
83410;SDS011;73340;53.132;8.174;2024-03-22T04:48:12;62.63;;;25.45;;
83410;SDS011;73340;53.132;8.174;2024-03-22T04:50:39;56.42;;;24.25;;
83410;SDS011;73340;53.132;8.174;2024-03-22T04:53:04;59.40;;;24.70;;
83410;SDS011;73340;53.132;8.174;2024-03-22T04:55:30;62.20;;;26.23;;
83410;SDS011;73340;53.132;8.174;2024-03-22T04:57:56;59.53;;;25.90;;
83410;SDS011;73340;53.132;8.174;2024-03-22T05:00:21;58.95;;;24.75;;
83410;SDS011;73340;53.132;8.174;2024-03-22T05:02:47;61.05;;;26.17;;
83410;SDS011;73340;53.132;8.174;2024-03-22T05:05:12;61.13;;;25.67;;
83410;SDS011;73340;53.132;8.174;2024-03-22T05:07:38;58.47;;;25.08;;
83410;SDS011;73340;53.132;8.174;2024-03-22T05:10:03;63.38;;;27.52;;
83410;SDS011;73340;53.132;8.174;2024-03-22T05:12:29;57.80;;;25.27;;
83410;SDS011;73340;53.132;8.174;2024-03-22T05:14:54;64.57;;;23.88;;
83410;SDS011;73340;53.132;8.174;2024-03-22T05:17:20;55.35;;;24.30;;
83410;SDS011;73340;53.132;8.174;2024-03-22T05:19:45;62.58;;;26.20;;
83410;SDS011;73340;53.132;8.174;2024-03-22T05:22:10;66.70;;;26.50;;
83410;SDS011;73340;53.132;8.174;2024-03-22T05:24:36;62.80;;;25.80;;
83410;SDS011;73340;53.132;8.174;2024-03-22T05:27:01;59.43;;;26.63;;
83410;SDS011;73340;53.132;8.174;2024-03-22T05:29:26;62.22;;;27.75;;
83410;SDS011;73340;53.132;8.174;2024-03-22T05:31:52;59.83;;;27.20;;
83410;SDS011;73340;53.132;8.174;2024-03-22T05:34:17;64.93;;;26.08;;
83410;SDS011;73340;53.132;8.174;2024-03-22T05:36:44;62.83;;;26.08;;
83410;SDS011;73340;53.132;8.174;2024-03-22T05:39:10;61.08;;;25.50;;
83410;SDS011;73340;53.132;8.174;2024-03-22T05:41:38;65.63;;;26.13;;
83410;SDS011;73340;53.132;8.174;2024-03-22T05:44:03;62.72;;;26.80;;
83410;SDS011;73340;53.132;8.174;2024-03-22T05:46:30;62.65;;;26.40;;
83410;SDS011;73340;53.132;8.174;2024-03-22T05:48:56;65.15;;;27.63;;
83410;SDS011;73340;53.132;8.174;2024-03-22T05:51:22;63.75;;;26.73;;
83410;SDS011;73340;53.132;8.174;2024-03-22T05:53:47;63.58;;;28.33;;
83410;SDS011;73340;53.132;8.174;2024-03-22T05:56:12;61.43;;;27.77;;
83410;SDS011;73340;53.132;8.174;2024-03-22T05:58:38;64.43;;;28.90;;
83410;SDS011;73340;53.132;8.174;2024-03-22T06:01:03;70.03;;;27.52;;
83410;SDS011;73340;53.132;8.174;2024-03-22T06:03:29;62.70;;;26.25;;
83410;SDS011;73340;53.132;8.174;2024-03-22T06:05:55;63.05;;;27.05;;
83410;SDS011;73340;53.132;8.174;2024-03-22T06:08:24;56.65;;;25.25;;
83410;SDS011;73340;53.132;8.174;2024-03-22T06:10:50;64.15;;;27.25;;
83410;SDS011;73340;53.132;8.174;2024-03-22T06:13:15;62.07;;;27.53;;
83410;SDS011;73340;53.132;8.174;2024-03-22T06:15:42;69.30;;;28.43;;
83410;SDS011;73340;53.132;8.174;2024-03-22T06:18:10;64.45;;;27.10;;
83410;SDS011;73340;53.132;8.174;2024-03-22T06:20:36;65.75;;;27.50;;
83410;SDS011;73340;53.132;8.174;2024-03-22T06:23:01;61.40;;;25.30;;
83410;SDS011;73340;53.132;8.174;2024-03-22T06:25:26;62.88;;;26.30;;
83410;SDS011;73340;53.132;8.174;2024-03-22T06:27:52;57.80;;;24.13;;
83410;SDS011;73340;53.132;8.174;2024-03-22T06:30:17;62.72;;;26.25;;
83410;SDS011;73340;53.132;8.174;2024-03-22T06:32:42;66.83;;;26.90;;
83410;SDS011;73340;53.132;8.174;2024-03-22T06:35:07;67.77;;;27.67;;
83410;SDS011;73340;53.132;8.174;2024-03-22T06:37:33;65.00;;;27.75;;
83410;SDS011;73340;53.132;8.174;2024-03-22T06:39:58;75.53;;;28.17;;
83410;SDS011;73340;53.132;8.174;2024-03-22T06:42:23;66.90;;;26.27;;
83410;SDS011;73340;53.132;8.174;2024-03-22T06:44:49;65.65;;;27.60;;
83410;SDS011;73340;53.132;8.174;2024-03-22T06:47:14;70.57;;;28.20;;
83410;SDS011;73340;53.132;8.174;2024-03-22T06:49:39;64.30;;;27.02;;
83410;SDS011;73340;53.132;8.174;2024-03-22T06:52:05;65.20;;;27.20;;
83410;SDS011;73340;53.132;8.174;2024-03-22T06:54:31;62.90;;;26.92;;
83410;SDS011;73340;53.132;8.174;2024-03-22T06:56:56;65.60;;;28.70;;
83410;SDS011;73340;53.132;8.174;2024-03-22T06:59:21;67.03;;;28.53;;
83410;SDS011;73340;53.132;8.174;2024-03-22T07:01:46;71.32;;;27.92;;
83410;SDS011;73340;53.132;8.174;2024-03-22T07:04:12;63.57;;;27.57;;
83410;SDS011;73340;53.132;8.174;2024-03-22T07:06:37;73.97;;;28.57;;
83410;SDS011;73340;53.132;8.174;2024-03-22T07:09:02;75.68;;;29.63;;
83410;SDS011;73340;53.132;8.174;2024-03-22T07:11:28;64.07;;;27.03;;
83410;SDS011;73340;53.132;8.174;2024-03-22T07:13:53;76.23;;;30.30;;
83410;SDS011;73340;53.132;8.174;2024-03-22T07:16:18;76.00;;;28.77;;
83410;SDS011;73340;53.132;8.174;2024-03-22T07:18:44;72.22;;;29.33;;
83410;SDS011;73340;53.132;8.174;2024-03-22T07:21:09;73.22;;;29.15;;
83410;SDS011;73340;53.132;8.174;2024-03-22T07:23:34;70.63;;;28.97;;
83410;SDS011;73340;53.132;8.174;2024-03-22T07:26:00;64.23;;;27.43;;
83410;SDS011;73340;53.132;8.174;2024-03-22T07:28:25;77.20;;;28.98;;
83410;SDS011;73340;53.132;8.174;2024-03-22T07:30:50;75.23;;;28.47;;
83410;SDS011;73340;53.132;8.174;2024-03-22T07:33:16;71.97;;;27.43;;
83410;SDS011;73340;53.132;8.174;2024-03-22T07:35:42;66.28;;;28.08;;
83410;SDS011;73340;53.132;8.174;2024-03-22T07:38:08;73.50;;;29.65;;
83410;SDS011;73340;53.132;8.174;2024-03-22T07:40:33;70.10;;;27.38;;
83410;SDS011;73340;53.132;8.174;2024-03-22T07:42:58;75.43;;;30.42;;
83410;SDS011;73340;53.132;8.174;2024-03-22T07:45:24;71.13;;;29.48;;
83410;SDS011;73340;53.132;8.174;2024-03-22T07:47:49;78.47;;;30.00;;
83410;SDS011;73340;53.132;8.174;2024-03-22T07:50:15;72.80;;;30.87;;
83410;SDS011;73340;53.132;8.174;2024-03-22T07:52:40;72.10;;;30.08;;
83410;SDS011;73340;53.132;8.174;2024-03-22T07:55:06;73.43;;;28.20;;
83410;SDS011;73340;53.132;8.174;2024-03-22T07:57:31;68.38;;;26.35;;
83410;SDS011;73340;53.132;8.174;2024-03-22T07:59:57;70.72;;;27.48;;
83410;SDS011;73340;53.132;8.174;2024-03-22T08:02:23;70.25;;;29.58;;
83410;SDS011;73340;53.132;8.174;2024-03-22T08:04:49;70.35;;;27.45;;
83410;SDS011;73340;53.132;8.174;2024-03-22T08:07:14;64.18;;;27.98;;
83410;SDS011;73340;53.132;8.174;2024-03-22T08:09:39;69.47;;;28.65;;
83410;SDS011;73340;53.132;8.174;2024-03-22T08:12:05;67.93;;;27.75;;
83410;SDS011;73340;53.132;8.174;2024-03-22T08:14:31;69.57;;;28.83;;
83410;SDS011;73340;53.132;8.174;2024-03-22T08:16:56;64.90;;;23.73;;
83410;SDS011;73340;53.132;8.174;2024-03-22T08:19:22;59.45;;;25.60;;
83410;SDS011;73340;53.132;8.174;2024-03-22T08:21:47;60.35;;;23.55;;
83410;SDS011;73340;53.132;8.174;2024-03-22T08:24:13;57.40;;;24.27;;
83410;SDS011;73340;53.132;8.174;2024-03-22T08:26:38;53.90;;;22.20;;
83410;SDS011;73340;53.132;8.174;2024-03-22T08:29:03;59.33;;;23.37;;
83410;SDS011;73340;53.132;8.174;2024-03-22T08:31:29;57.58;;;24.35;;
83410;SDS011;73340;53.132;8.174;2024-03-22T08:33:54;56.27;;;23.33;;
83410;SDS011;73340;53.132;8.174;2024-03-22T08:36:21;48.08;;;22.02;;
83410;SDS011;73340;53.132;8.174;2024-03-22T08:38:47;63.38;;;25.55;;
83410;SDS011;73340;53.132;8.174;2024-03-22T08:41:12;62.03;;;24.20;;
83410;SDS011;73340;53.132;8.174;2024-03-22T08:43:37;50.40;;;23.07;;
83410;SDS011;73340;53.132;8.174;2024-03-22T08:46:03;49.35;;;22.85;;
83410;SDS011;73340;53.132;8.174;2024-03-22T08:48:28;51.10;;;22.52;;
83410;SDS011;73340;53.132;8.174;2024-03-22T08:50:54;51.95;;;21.30;;
83410;SDS011;73340;53.132;8.174;2024-03-22T08:53:19;51.55;;;21.85;;
83410;SDS011;73340;53.132;8.174;2024-03-22T08:55:47;45.80;;;19.37;;
83410;SDS011;73340;53.132;8.174;2024-03-22T08:58:16;47.55;;;20.52;;
83410;SDS011;73340;53.132;8.174;2024-03-22T09:00:42;47.47;;;20.30;;
83410;SDS011;73340;53.132;8.174;2024-03-22T09:03:08;46.45;;;20.30;;
83410;SDS011;73340;53.132;8.174;2024-03-22T09:05:34;45.58;;;18.92;;
83410;SDS011;73340;53.132;8.174;2024-03-22T09:07:59;51.20;;;22.03;;
83410;SDS011;73340;53.132;8.174;2024-03-22T09:10:25;51.53;;;20.75;;
83410;SDS011;73340;53.132;8.174;2024-03-22T09:12:51;51.30;;;21.48;;
83410;SDS011;73340;53.132;8.174;2024-03-22T09:15:17;43.22;;;19.63;;
83410;SDS011;73340;53.132;8.174;2024-03-22T09:17:42;45.93;;;17.20;;
83410;SDS011;73340;53.132;8.174;2024-03-22T09:20:07;47.03;;;19.87;;
83410;SDS011;73340;53.132;8.174;2024-03-22T09:22:33;49.35;;;18.65;;
83410;SDS011;73340;53.132;8.174;2024-03-22T09:24:59;45.28;;;19.17;;
83410;SDS011;73340;53.132;8.174;2024-03-22T09:27:24;43.05;;;18.17;;
83410;SDS011;73340;53.132;8.174;2024-03-22T09:29:49;42.83;;;19.25;;
83410;SDS011;73340;53.132;8.174;2024-03-22T09:32:15;42.45;;;17.52;;
83410;SDS011;73340;53.132;8.174;2024-03-22T09:34:40;47.78;;;17.63;;
83410;SDS011;73340;53.132;8.174;2024-03-22T09:37:07;40.22;;;18.42;;
83410;SDS011;73340;53.132;8.174;2024-03-22T09:39:33;54.45;;;19.25;;
83410;SDS011;73340;53.132;8.174;2024-03-22T09:41:58;40.77;;;16.43;;
83410;SDS011;73340;53.132;8.174;2024-03-22T09:44:24;35.95;;;16.17;;
83410;SDS011;73340;53.132;8.174;2024-03-22T09:46:52;38.72;;;17.17;;
83410;SDS011;73340;53.132;8.174;2024-03-22T09:49:17;42.22;;;16.67;;
83410;SDS011;73340;53.132;8.174;2024-03-22T09:51:43;39.80;;;16.50;;
83410;SDS011;73340;53.132;8.174;2024-03-22T09:54:09;40.83;;;17.27;;
83410;SDS011;73340;53.132;8.174;2024-03-22T09:56:35;42.75;;;18.50;;
83410;SDS011;73340;53.132;8.174;2024-03-22T09:59:03;44.65;;;16.33;;
83410;SDS011;73340;53.132;8.174;2024-03-22T10:01:29;43.72;;;17.65;;
83410;SDS011;73340;53.132;8.174;2024-03-22T10:03:54;39.33;;;17.65;;
83410;SDS011;73340;53.132;8.174;2024-03-22T10:06:20;39.28;;;17.42;;
83410;SDS011;73340;53.132;8.174;2024-03-22T10:08:45;39.08;;;17.15;;
83410;SDS011;73340;53.132;8.174;2024-03-22T10:11:11;42.40;;;16.48;;
83410;SDS011;73340;53.132;8.174;2024-03-22T10:13:37;42.38;;;16.85;;
83410;SDS011;73340;53.132;8.174;2024-03-22T10:16:02;38.05;;;15.68;;
83410;SDS011;73340;53.132;8.174;2024-03-22T10:18:28;38.00;;;16.42;;
83410;SDS011;73340;53.132;8.174;2024-03-22T10:21:02;37.20;;;15.73;;
83410;SDS011;73340;53.132;8.174;2024-03-22T10:23:29;32.28;;;15.55;;
83410;SDS011;73340;53.132;8.174;2024-03-22T10:25:58;32.00;;;14.60;;
83410;SDS011;73340;53.132;8.174;2024-03-22T10:28:24;31.27;;;13.57;;
83410;SDS011;73340;53.132;8.174;2024-03-22T10:30:50;32.47;;;13.82;;
83410;SDS011;73340;53.132;8.174;2024-03-22T10:33:18;31.05;;;14.50;;
83410;SDS011;73340;53.132;8.174;2024-03-22T10:35:44;28.58;;;13.73;;
83410;SDS011;73340;53.132;8.174;2024-03-22T10:38:14;26.73;;;12.43;;
83410;SDS011;73340;53.132;8.174;2024-03-22T10:40:44;26.13;;;13.32;;
83410;SDS011;73340;53.132;8.174;2024-03-22T10:43:11;29.35;;;13.13;;
83410;SDS011;73340;53.132;8.174;2024-03-22T10:45:37;28.00;;;12.52;;
83410;SDS011;73340;53.132;8.174;2024-03-22T10:48:06;25.23;;;12.77;;
83410;SDS011;73340;53.132;8.174;2024-03-22T10:50:40;25.08;;;11.05;;
83410;SDS011;73340;53.132;8.174;2024-03-22T10:53:07;25.48;;;11.80;;
83410;SDS011;73340;53.132;8.174;2024-03-22T10:55:39;30.40;;;13.15;;
83410;SDS011;73340;53.132;8.174;2024-03-22T10:58:14;24.00;;;12.52;;
83410;SDS011;73340;53.132;8.174;2024-03-22T11:00:43;24.75;;;11.45;;
83410;SDS011;73340;53.132;8.174;2024-03-22T11:03:09;24.35;;;11.32;;
83410;SDS011;73340;53.132;8.174;2024-03-22T11:05:44;26.48;;;12.88;;
83410;SDS011;73340;53.132;8.174;2024-03-22T11:08:10;26.35;;;12.75;;
83410;SDS011;73340;53.132;8.174;2024-03-22T11:10:36;26.10;;;11.10;;
83410;SDS011;73340;53.132;8.174;2024-03-22T11:13:02;23.52;;;11.07;;
83410;SDS011;73340;53.132;8.174;2024-03-22T11:15:29;28.52;;;12.02;;
83410;SDS011;73340;53.132;8.174;2024-03-22T11:17:55;21.00;;;10.57;;
83410;SDS011;73340;53.132;8.174;2024-03-22T11:20:20;21.42;;;11.27;;
83410;SDS011;73340;53.132;8.174;2024-03-22T11:22:46;20.33;;;10.00;;
83410;SDS011;73340;53.132;8.174;2024-03-22T11:25:11;20.50;;;9.57;;
83410;SDS011;73340;53.132;8.174;2024-03-22T11:27:37;31.65;;;12.98;;
83410;SDS011;73340;53.132;8.174;2024-03-22T11:30:02;19.37;;;10.00;;
83410;SDS011;73340;53.132;8.174;2024-03-22T11:32:28;22.25;;;10.70;;
83410;SDS011;73340;53.132;8.174;2024-03-22T11:34:54;21.27;;;9.50;;
83410;SDS011;73340;53.132;8.174;2024-03-22T11:37:19;19.67;;;9.23;;
83410;SDS011;73340;53.132;8.174;2024-03-22T11:39:44;20.93;;;9.70;;
83410;SDS011;73340;53.132;8.174;2024-03-22T11:42:10;18.87;;;8.50;;
83410;SDS011;73340;53.132;8.174;2024-03-22T11:44:36;17.25;;;8.40;;
83410;SDS011;73340;53.132;8.174;2024-03-22T11:47:04;15.55;;;8.73;;
83410;SDS011;73340;53.132;8.174;2024-03-22T11:49:29;17.73;;;7.97;;
83410;SDS011;73340;53.132;8.174;2024-03-22T11:51:57;16.33;;;8.95;;
83410;SDS011;73340;53.132;8.174;2024-03-22T11:54:23;16.88;;;8.45;;
83410;SDS011;73340;53.132;8.174;2024-03-22T11:56:48;16.73;;;7.55;;
83410;SDS011;73340;53.132;8.174;2024-03-22T11:59:14;14.10;;;7.30;;
83410;SDS011;73340;53.132;8.174;2024-03-22T12:01:43;14.32;;;7.18;;
83410;SDS011;73340;53.132;8.174;2024-03-22T12:04:09;13.70;;;7.50;;
83410;SDS011;73340;53.132;8.174;2024-03-22T12:06:40;15.68;;;7.00;;
83410;SDS011;73340;53.132;8.174;2024-03-22T12:09:06;12.77;;;6.55;;
83410;SDS011;73340;53.132;8.174;2024-03-22T12:11:33;12.75;;;6.85;;
83410;SDS011;73340;53.132;8.174;2024-03-22T12:13:58;11.70;;;5.03;;
83410;SDS011;73340;53.132;8.174;2024-03-22T12:16:24;10.07;;;5.60;;
83410;SDS011;73340;53.132;8.174;2024-03-22T12:18:49;10.95;;;5.55;;
83410;SDS011;73340;53.132;8.174;2024-03-22T12:21:14;9.20;;;5.27;;
83410;SDS011;73340;53.132;8.174;2024-03-22T12:23:40;10.00;;;5.43;;
83410;SDS011;73340;53.132;8.174;2024-03-22T12:26:05;10.00;;;4.63;;
83410;SDS011;73340;53.132;8.174;2024-03-22T12:28:31;9.63;;;5.28;;
83410;SDS011;73340;53.132;8.174;2024-03-22T12:30:56;7.55;;;4.63;;
83410;SDS011;73340;53.132;8.174;2024-03-22T12:33:21;7.93;;;4.57;;
83410;SDS011;73340;53.132;8.174;2024-03-22T12:35:47;9.52;;;4.82;;
83410;SDS011;73340;53.132;8.174;2024-03-22T12:38:13;7.75;;;4.97;;
83410;SDS011;73340;53.132;8.174;2024-03-22T12:40:39;6.20;;;4.22;;
83410;SDS011;73340;53.132;8.174;2024-03-22T12:43:05;7.32;;;4.28;;
83410;SDS011;73340;53.132;8.174;2024-03-22T12:45:30;5.88;;;3.95;;
83410;SDS011;73340;53.132;8.174;2024-03-22T12:47:56;6.10;;;3.58;;
83410;SDS011;73340;53.132;8.174;2024-03-22T12:50:21;5.70;;;3.70;;
83410;SDS011;73340;53.132;8.174;2024-03-22T12:52:46;6.00;;;3.47;;
83410;SDS011;73340;53.132;8.174;2024-03-22T12:55:12;5.07;;;3.30;;
83410;SDS011;73340;53.132;8.174;2024-03-22T12:57:37;6.75;;;3.70;;
83410;SDS011;73340;53.132;8.174;2024-03-22T13:00:03;5.65;;;4.18;;
83410;SDS011;73340;53.132;8.174;2024-03-22T13:02:31;5.93;;;3.47;;
83410;SDS011;73340;53.132;8.174;2024-03-22T13:04:57;4.07;;;3.00;;
83410;SDS011;73340;53.132;8.174;2024-03-22T13:07:22;5.43;;;3.40;;
83410;SDS011;73340;53.132;8.174;2024-03-22T13:09:48;5.10;;;3.70;;
83410;SDS011;73340;53.132;8.174;2024-03-22T13:12:15;4.95;;;3.55;;
83410;SDS011;73340;53.132;8.174;2024-03-22T13:14:40;6.00;;;3.30;;
83410;SDS011;73340;53.132;8.174;2024-03-22T13:17:05;4.33;;;2.83;;
83410;SDS011;73340;53.132;8.174;2024-03-22T13:19:31;4.47;;;3.03;;
83410;SDS011;73340;53.132;8.174;2024-03-22T13:21:56;4.78;;;3.03;;
83410;SDS011;73340;53.132;8.174;2024-03-22T13:24:21;3.65;;;2.80;;
83410;SDS011;73340;53.132;8.174;2024-03-22T13:26:47;3.40;;;2.23;;
83410;SDS011;73340;53.132;8.174;2024-03-22T13:29:12;3.53;;;2.23;;
83410;SDS011;73340;53.132;8.174;2024-03-22T13:31:39;3.10;;;2.10;;
83410;SDS011;73340;53.132;8.174;2024-03-22T13:34:04;2.92;;;2.20;;
83410;SDS011;73340;53.132;8.174;2024-03-22T13:36:29;3.08;;;2.15;;
83410;SDS011;73340;53.132;8.174;2024-03-22T13:38:57;2.70;;;1.90;;
83410;SDS011;73340;53.132;8.174;2024-03-22T13:41:23;3.25;;;2.40;;
83410;SDS011;73340;53.132;8.174;2024-03-22T13:43:48;2.47;;;1.93;;
83410;SDS011;73340;53.132;8.174;2024-03-22T13:46:13;2.90;;;2.03;;
83410;SDS011;73340;53.132;8.174;2024-03-22T13:48:42;2.20;;;1.90;;
83410;SDS011;73340;53.132;8.174;2024-03-22T13:51:08;3.33;;;2.10;;
83410;SDS011;73340;53.132;8.174;2024-03-22T13:53:33;2.78;;;1.80;;
83410;SDS011;73340;53.132;8.174;2024-03-22T13:55:58;2.97;;;2.30;;
83410;SDS011;73340;53.132;8.174;2024-03-22T13:58:24;2.93;;;2.30;;
83410;SDS011;73340;53.132;8.174;2024-03-22T14:00:49;3.10;;;2.30;;
83410;SDS011;73340;53.132;8.174;2024-03-22T14:03:14;2.85;;;1.92;;
83410;SDS011;73340;53.132;8.174;2024-03-22T14:05:39;3.77;;;2.07;;
83410;SDS011;73340;53.132;8.174;2024-03-22T14:08:05;3.50;;;2.30;;
83410;SDS011;73340;53.132;8.174;2024-03-22T14:10:30;3.60;;;2.80;;
83410;SDS011;73340;53.132;8.174;2024-03-22T14:12:56;3.72;;;2.10;;
83410;SDS011;73340;53.132;8.174;2024-03-22T14:15:22;2.97;;;1.55;;
83410;SDS011;73340;53.132;8.174;2024-03-22T14:17:50;4.07;;;1.88;;